Time,TemperatureF,DewpointF,PressureIn,WindDirection,WindDirectionDegrees,WindSpeedMPH,WindSpeedGustMPH,Humidity,HourlyPrecipIn,Conditions,Clouds,dailyrainin,SolarRadiationWatts/m^2,SoftwareType,DateUTC
2013-02-12 00:00:00,40.3,33.7,30.25,South,174,1.0,1.0,77,0.00,,,0.00,0,Wunderground v.1.15,2013-02-12 08:00:00,
2013-02-12 00:05:00,40.4,33.8,30.25,South,174,0.0,1.0,77,0.00,,,0.00,0,Wunderground v.1.15,2013-02-12 08:05:00,
2013-02-12 00:10:00,40.3,33.7,30.25,South,174,0.0,0.0,77,0.00,,,0.00,0,Wunderground v.1.15,2013-02-12 08:10:00,
2013-02-12 00:15:00,39.9,32.9,30.25,South,174,0.0,0.0,76,0.00,,,0.00,0,Wunderground v.1.15,2013-02-12 08:15:00,
2013-02-12 00:20:00,39.7,32.1,30.25,South,174,0.0,0.0,74,0.00,,,0.00,0,Wunderground v.1.15,2013-02-12 08:20:00,
2013-02-12 00:30:00,39.5,32.2,30.25,South,174,0.0,0.0,75,0.00,,,0.00,0,Wunderground v.1.15,2013-02-12 08:30:00,
2013-02-12 00:40:00,39.2,31.6,30.25,South,174,0.0,0.0,74,0.00,,,0.00,0,Wunderground v.1.15,2013-02-12 08:40:00,
2013-02-12 00:50:00,39.1,31.8,30.26,South,174,1.0,1.0,75,0.00,,,0.00,0,Wunderground v.1.15,2013-02-12 08:50:00,
2013-02-12 01:00:00,38.9,31.6,30.26,South,174,1.0,1.0,75,0.00,,,0.00,0,Wunderground v.1.15,2013-02-12 09:00:00,
2013-02-12 01:05:00,38.8,31.2,30.26,SSE,158,0.0,1.0,74,0.00,,,0.00,0,Wunderground v.1.15,2013-02-12 09:05:00,
2013-02-12 01:10:00,38.9,31.6,30.26,SSE,158,1.0,1.0,75,0.00,,,0.00,0,Wunderground v.1.15,2013-02-12 09:10:00,
2013-02-12 01:20:00,39.2,31.6,30.25,SSE,158,1.0,1.0,74,0.00,,,0.00,0,Wunderground v.1.15,2013-02-12 09:20:00,
2013-02-12 01:25:00,39.0,31.4,30.25,SSE,168,1.0,1.0,74,0.00,,,0.00,0,Wunderground v.1.15,2013-02-12 09:25:00,
2013-02-12 01:35:00,38.3,31.4,30.25,South,182,0.0,2.0,76,0.00,,,0.00,0,Wunderground v.1.15,2013-02-12 09:35:00,
2013-02-12 01:40:00,38.5,31.6,30.25,SSE,168,2.0,2.0,76,0.00,,,0.00,0,Wunderground v.1.15,2013-02-12 09:40:00,
2013-02-12 01:45:00,39.3,32.0,30.25,South,174,2.0,2.0,75,0.00,,,0.00,0,Wunderground v.1.15,2013-02-12 09:45:00,
2013-02-12 01:50:00,39.8,31.8,30.25,SSE,164,1.0,1.0,73,0.00,,,0.00,0,Wunderground v.1.15,2013-02-12 09:50:00,
2013-02-12 02:00:00,39.8,31.5,30.26,South,177,0.0,0.0,72,0.00,,,0.00,0,Wunderground v.1.15,2013-02-12 10:00:00,
2013-02-12 02:10:00,39.3,31.4,30.26,South,177,0.0,0.0,73,0.00,,,0.00,0,Wunderground v.1.15,2013-02-12 10:10:00,
2013-02-12 02:15:00,38.9,31.0,30.26,South,177,0.0,0.0,73,0.00,,,0.00,0,Wunderground v.1.15,2013-02-12 10:15:00,
2013-02-12 02:20:00,38.4,30.8,30.26,South,177,0.0,0.0,74,0.00,,,0.00,0,Wunderground v.1.15,2013-02-12 10:20:00,
2013-02-12 02:30:00,37.6,30.7,30.27,South,177,0.0,0.0,76,0.00,,,0.00,0,Wunderground v.1.15,2013-02-12 10:30:00,
2013-02-12 02:35:00,37.3,30.7,30.27,South,177,0.0,0.0,77,0.00,,,0.00,0,Wunderground v.1.15,2013-02-12 10:35:00,
2013-02-12 02:40:00,37.3,31.4,30.27,South,177,0.0,0.0,79,0.00,,,0.00,0,Wunderground v.1.15,2013-02-12 10:40:00,
2013-02-12 02:50:00,37.8,31.9,30.27,South,177,0.0,0.0,79,0.00,,,0.00,0,Wunderground v.1.15,2013-02-12 10:50:00,
2013-02-12 03:00:00,38.0,31.7,30.27,South,177,0.0,0.0,78,0.00,,,0.00,0,Wunderground v.1.15,2013-02-12 11:00:00,
2013-02-12 03:05:00,37.8,31.6,30.27,South,177,0.0,0.0,78,0.00,,,0.00,0,Wunderground v.1.15,2013-02-12 11:05:00,
2013-02-12 03:10:00,37.8,31.9,30.27,South,177,0.0,0.0,79,0.00,,,0.00,0,Wunderground v.1.15,2013-02-12 11:10:00,
2013-02-12 03:20:00,37.8,31.9,30.27,South,177,0.0,0.0,79,0.00,,,0.00,0,Wunderground v.1.15,2013-02-12 11:20:00,
2013-02-12 03:25:00,37.7,31.8,30.27,South,177,0.0,0.0,79,0.00,,,0.00,0,Wunderground v.1.15,2013-02-12 11:25:00,
2013-02-12 03:30:00,37.5,31.3,30.27,South,177,0.0,0.0,78,0.00,,,0.00,0,Wunderground v.1.15,2013-02-12 11:30:00,
2013-02-12 03:40:00,37.2,31.3,30.27,South,177,0.0,0.0,79,0.00,,,0.00,0,Wunderground v.1.15,2013-02-12 11:40:00,
2013-02-12 03:50:00,36.9,31.3,30.27,South,177,0.0,0.0,80,0.00,,,0.00,0,Wunderground v.1.15,2013-02-12 11:50:00,
2013-02-12 03:55:00,36.8,31.5,30.27,South,177,0.0,0.0,81,0.00,,,0.00,0,Wunderground v.1.15,2013-02-12 11:55:00,
2013-02-12 04:00:00,36.7,31.4,30.27,South,177,0.0,0.0,81,0.00,,,0.00,0,Wunderground v.1.15,2013-02-12 12:00:00,
2013-02-12 04:10:00,36.4,31.1,30.27,South,177,0.0,0.0,81,0.00,,,0.00,0,Wunderground v.1.15,2013-02-12 12:10:00,
2013-02-12 04:15:00,36.2,31.2,30.27,South,177,0.0,0.0,82,0.00,,,0.00,0,Wunderground v.1.15,2013-02-12 12:15:00,
2013-02-12 04:20:00,36.3,31.3,30.27,South,177,0.0,0.0,82,0.00,,,0.00,0,Wunderground v.1.15,2013-02-12 12:20:00,
2013-02-12 04:30:00,36.3,31.3,30.27,South,177,0.0,0.0,82,0.00,,,0.00,0,Wunderground v.1.15,2013-02-12 12:30:00,
2013-02-12 04:35:00,36.2,31.2,30.28,South,177,0.0,0.0,82,0.00,,,0.00,0,Wunderground v.1.15,2013-02-12 12:35:00,
2013-02-12 04:40:00,36.1,31.1,30.28,South,177,0.0,0.0,82,0.00,,,0.00,0,Wunderground v.1.15,2013-02-12 12:40:00,
2013-02-12 04:50:00,36.2,31.2,30.27,South,177,0.0,0.0,82,0.00,,,0.00,0,Wunderground v.1.15,2013-02-12 12:50:00,
2013-02-12 04:55:00,36.1,31.1,30.28,South,177,0.0,0.0,82,0.00,,,0.00,0,Wunderground v.1.15,2013-02-12 12:55:00,
2013-02-12 05:00:00,36.1,31.1,30.28,South,177,0.0,0.0,82,0.00,,,0.00,0,Wunderground v.1.15,2013-02-12 13:00:00,
2013-02-12 05:10:00,36.3,31.3,30.28,South,177,0.0,0.0,82,0.00,,,0.00,0,Wunderground v.1.15,2013-02-12 13:10:00,
2013-02-12 05:15:00,36.4,31.4,30.28,South,177,0.0,0.0,82,0.00,,,0.00,0,Wunderground v.1.15,2013-02-12 13:15:00,
2013-02-12 05:20:00,36.5,31.5,30.28,South,177,0.0,0.0,82,0.00,,,0.00,0,Wunderground v.1.15,2013-02-12 13:20:00,
2013-02-12 05:30:00,36.9,31.9,30.28,South,177,0.0,0.0,82,0.00,,,0.00,0,Wunderground v.1.15,2013-02-12 13:30:00,
2013-02-12 05:40:00,36.5,31.2,30.28,South,177,0.0,0.0,81,0.00,,,0.00,0,Wunderground v.1.15,2013-02-12 13:40:00,
2013-02-12 05:45:00,36.2,31.2,30.28,South,177,0.0,0.0,82,0.00,,,0.00,0,Wunderground v.1.15,2013-02-12 13:45:00,
2013-02-12 05:50:00,35.9,31.2,30.28,South,177,0.0,0.0,83,0.00,,,0.00,0,Wunderground v.1.15,2013-02-12 13:50:00,
2013-02-12 06:00:00,35.4,30.8,30.28,South,177,0.0,0.0,83,0.00,,,0.00,0,Wunderground v.1.15,2013-02-12 14:00:00,
2013-02-12 06:05:00,35.1,30.8,30.28,South,177,0.0,0.0,84,0.00,,,0.00,0,Wunderground v.1.15,2013-02-12 14:05:00,
2013-02-12 06:10:00,35.0,30.7,30.29,South,177,0.0,0.0,84,0.00,,,0.00,0,Wunderground v.1.15,2013-02-12 14:10:00,
2013-02-12 06:20:00,34.7,30.9,30.29,South,177,1.0,1.0,86,0.00,,,0.00,0,Wunderground v.1.15,2013-02-12 14:20:00,
2013-02-12 06:30:00,34.6,31.1,30.29,South,177,0.0,0.0,87,0.00,,,0.00,0,Wunderground v.1.15,2013-02-12 14:30:00,
2013-02-12 06:35:00,34.4,30.9,30.30,South,177,0.0,0.0,87,0.00,,,0.00,0,Wunderground v.1.15,2013-02-12 14:35:00,
2013-02-12 06:40:00,34.3,31.1,30.30,South,177,0.0,0.0,88,0.00,,,0.00,0,Wunderground v.1.15,2013-02-12 14:40:00,
2013-02-12 06:50:00,34.0,30.8,30.31,South,177,0.0,0.0,88,0.00,,,0.00,0,Wunderground v.1.15,2013-02-12 14:50:00,
2013-02-12 06:55:00,33.9,31.0,30.31,South,177,0.0,0.0,89,0.00,,,0.00,0,Wunderground v.1.15,2013-02-12 14:55:00,
2013-02-12 07:00:00,33.8,31.2,30.31,South,177,0.0,0.0,90,0.00,,,0.00,0,Wunderground v.1.15,2013-02-12 15:00:00,
2013-02-12 07:10:00,33.7,31.1,30.31,South,177,0.0,0.0,90,0.00,,,0.00,0,Wunderground v.1.15,2013-02-12 15:10:00,
2013-02-12 07:20:00,33.6,31.5,30.32,South,177,0.0,0.0,92,0.00,,,0.00,0,Wunderground v.1.15,2013-02-12 15:20:00,
2013-02-12 07:25:00,33.7,31.9,30.32,South,177,0.0,0.0,93,0.00,,,0.00,0,Wunderground v.1.15,2013-02-12 15:25:00,
2013-02-12 07:30:00,33.8,32.3,30.32,South,177,0.0,0.0,94,0.00,,,0.00,0,Wunderground v.1.15,2013-02-12 15:30:00,
2013-02-12 07:40:00,34.4,33.1,30.33,South,177,0.0,0.0,95,0.00,,,0.00,0,Wunderground v.1.15,2013-02-12 15:40:00,
2013-02-12 07:50:00,34.9,33.9,30.33,South,177,0.0,0.0,96,0.00,,,0.00,0,Wunderground v.1.15,2013-02-12 15:50:00,
2013-02-12 08:00:00,35.4,34.4,30.33,South,177,0.0,0.0,96,0.00,,,0.00,0,Wunderground v.1.15,2013-02-12 16:00:00,
2013-02-12 08:10:00,36.1,34.8,30.33,South,177,0.0,0.0,95,0.00,,,0.00,0,Wunderground v.1.15,2013-02-12 16:10:00,
2013-02-12 08:15:00,36.4,35.1,30.34,South,177,1.0,1.0,95,0.00,,,0.00,0,Wunderground v.1.15,2013-02-12 16:15:00,
2013-02-12 08:20:00,36.9,35.3,30.34,West,270,1.0,1.0,94,0.00,,,0.00,0,Wunderground v.1.15,2013-02-12 16:20:00,
2013-02-12 08:30:00,37.6,35.8,30.35,NW,305,2.0,2.0,93,0.00,,,0.00,0,Wunderground v.1.15,2013-02-12 16:30:00,
2013-02-12 08:35:00,38.1,36.3,30.35,NW,305,0.0,2.0,93,0.00,,,0.00,0,Wunderground v.1.15,2013-02-12 16:35:00,
2013-02-12 08:45:00,38.8,36.7,30.35,NW,305,0.0,1.0,92,0.00,,,0.00,0,Wunderground v.1.15,2013-02-12 16:45:00,
2013-02-12 08:50:00,39.3,36.9,30.35,NW,305,0.0,0.0,91,0.00,,,0.00,0,Wunderground v.1.15,2013-02-12 16:50:00,
2013-02-12 08:55:00,39.8,37.1,30.35,NW,305,0.0,0.0,90,0.00,,,0.00,0,Wunderground v.1.15,2013-02-12 16:55:00,
2013-02-12 09:00:00,40.8,38.1,30.36,NW,305,0.0,0.0,90,0.00,,,0.00,0,Wunderground v.1.15,2013-02-12 17:00:00,
2013-02-12 09:10:00,41.8,37.9,30.36,NW,305,0.0,0.0,86,0.00,,,0.00,0,Wunderground v.1.15,2013-02-12 17:10:00,
2013-02-12 09:19:00,43.7,38.6,30.36,SW,231,2.0,2.0,82,0.00,,,0.00,0,Wunderground v.1.15,2013-02-12 17:19:00,
2013-02-12 09:25:00,44.4,38.9,30.36,SSW,210,0.0,2.0,81,0.00,,,0.00,0,Wunderground v.1.15,2013-02-12 17:25:00,
2013-02-12 09:30:00,45.5,39.4,30.36,SSW,210,0.0,0.0,79,0.00,,,0.00,0,Wunderground v.1.15,2013-02-12 17:30:00,
2013-02-12 09:40:00,46.7,39.9,30.36,West,279,0.0,0.0,77,0.00,,,0.00,0,Wunderground v.1.15,2013-02-12 17:40:00,
2013-02-12 09:45:00,47.0,39.1,30.36,West,281,0.0,0.0,74,0.00,,,0.00,0,Wunderground v.1.15,2013-02-12 17:45:00,
2013-02-12 09:50:00,46.9,38.7,30.36,NW,321,1.0,1.0,73,0.00,,,0.00,0,Wunderground v.1.15,2013-02-12 17:50:00,
2013-02-12 10:00:00,47.3,38.7,30.36,NW,323,2.0,2.0,72,0.00,,,0.00,0,Wunderground v.1.15,2013-02-12 18:00:00,
2013-02-12 10:05:00,47.3,38.4,30.36,NW,307,1.0,2.0,71,0.00,,,0.00,0,Wunderground v.1.15,2013-02-12 18:05:00,
2013-02-12 10:10:00,47.5,38.6,30.36,NW,311,2.0,2.0,71,0.00,,,0.00,0,Wunderground v.1.15,2013-02-12 18:10:00,
2013-02-12 10:20:00,47.8,38.5,30.36,North,357,1.0,1.0,70,0.00,,,0.00,0,Wunderground v.1.15,2013-02-12 18:20:00,
2013-02-12 10:30:00,48.7,39.0,30.36,NW,306,1.0,1.0,69,0.00,,,0.00,0,Wunderground v.1.15,2013-02-12 18:30:00,
2013-02-12 10:40:00,49.6,39.1,30.36,North,0,0.0,0.0,67,0.00,,,0.00,0,Wunderground v.1.15,2013-02-12 18:40:00,
2013-02-12 10:49:00,51.0,40.4,30.36,North,359,0.0,0.0,67,0.00,,,0.00,0,Wunderground v.1.15,2013-02-12 18:49:00,
2013-02-12 10:55:00,51.6,39.8,30.36,NNW,348,2.0,2.0,64,0.00,,,0.00,0,Wunderground v.1.15,2013-02-12 18:55:00,
2013-02-12 11:00:00,51.8,39.6,30.36,NW,323,2.0,2.0,63,0.00,,,0.00,0,Wunderground v.1.15,2013-02-12 19:00:00,
2013-02-12 11:10:00,52.7,41.7,30.36,NNE,12,4.0,4.0,66,0.00,,,0.00,0,Wunderground v.1.15,2013-02-12 19:10:00,
2013-02-12 11:15:00,52.8,41.7,30.36,North,349,2.0,4.0,66,0.00,,,0.00,0,Wunderground v.1.15,2013-02-12 19:15:00,
2013-02-12 11:25:00,53.1,42.4,30.36,NNE,31,1.0,6.0,67,0.00,,,0.00,0,Wunderground v.1.15,2013-02-12 19:25:00,
2013-02-12 11:30:00,53.7,43.0,30.36,NNE,25,0.0,0.0,67,0.00,,,0.00,0,Wunderground v.1.15,2013-02-12 19:30:00,
2013-02-12 11:40:00,55.0,44.2,30.36,NNW,344,2.0,2.0,67,0.00,,,0.00,0,Wunderground v.1.15,2013-02-12 19:40:00,
2013-02-12 11:45:00,55.4,44.6,30.36,NW,322,1.0,2.0,67,0.00,,,0.00,0,Wunderground v.1.15,2013-02-12 19:45:00,
2013-02-12 11:50:00,55.8,45.0,30.36,NE,53,2.0,2.0,67,0.00,,,0.00,0,Wunderground v.1.15,2013-02-12 19:50:00,
2013-02-12 12:00:00,55.7,44.1,30.36,NNE,30,2.0,2.0,65,0.00,,,0.00,0,Wunderground v.1.15,2013-02-12 20:00:00,
2013-02-12 12:10:00,55.8,43.8,30.35,North,0,1.0,1.0,64,0.00,,,0.00,0,Wunderground v.1.15,2013-02-12 20:10:00,
2013-02-12 12:15:00,55.9,43.5,30.35,NE,48,2.0,2.0,63,0.00,,,0.00,0,Wunderground v.1.15,2013-02-12 20:15:00,
2013-02-12 12:25:00,56.5,43.2,30.35,NE,36,0.0,5.0,61,0.00,,,0.00,0,Wunderground v.1.15,2013-02-12 20:25:00,
2013-02-12 12:30:00,56.6,43.3,30.35,NNE,24,1.0,1.0,61,0.00,,,0.00,0,Wunderground v.1.15,2013-02-12 20:30:00,
2013-02-12 12:35:00,56.4,42.7,30.35,NE,41,0.0,1.0,60,0.00,,,0.00,0,Wunderground v.1.15,2013-02-12 20:35:00,
2013-02-12 12:45:00,57.2,43.0,30.34,NE,47,3.0,3.0,59,0.00,,,0.00,0,Wunderground v.1.15,2013-02-12 20:45:00,
2013-02-12 12:50:00,56.9,41.8,30.34,NNE,21,2.0,2.0,57,0.00,,,0.00,0,Wunderground v.1.15,2013-02-12 20:50:00,
2013-02-12 13:00:00,57.0,41.4,30.34,North,5,6.0,6.0,56,0.00,,,0.00,0,Wunderground v.1.15,2013-02-12 21:00:00,
2013-02-12 13:10:00,57.1,41.5,30.34,NNE,15,3.0,3.0,56,0.00,,,0.00,0,Wunderground v.1.15,2013-02-12 21:10:00,
2013-02-12 13:20:00,57.6,39.1,30.34,North,3,7.0,7.0,50,0.00,,,0.00,0,Wunderground v.1.15,2013-02-12 21:20:00,
2013-02-12 13:25:00,57.4,38.9,30.33,NE,39,0.0,7.0,50,0.00,,,0.00,0,Wunderground v.1.15,2013-02-12 21:25:00,
2013-02-12 13:30:00,57.4,38.4,30.33,North,10,7.0,7.0,49,0.00,,,0.00,0,Wunderground v.1.15,2013-02-12 21:30:00,
2013-02-12 13:40:00,57.5,39.0,30.33,NNE,21,7.0,7.0,50,0.00,,,0.00,0,Wunderground v.1.15,2013-02-12 21:40:00,
2013-02-12 13:50:00,58.1,41.0,30.33,NNE,32,1.0,1.0,53,0.00,,,0.00,0,Wunderground v.1.15,2013-02-12 21:50:00,
2013-02-12 14:00:00,58.4,40.3,30.33,NNE,30,5.0,5.0,51,0.00,,,0.00,0,Wunderground v.1.15,2013-02-12 22:00:00,
2013-02-12 14:10:00,58.7,42.1,30.32,NNE,12,6.0,6.0,54,0.00,,,0.00,0,Wunderground v.1.15,2013-02-12 22:10:00,
2013-02-12 14:15:00,58.4,40.8,30.32,North,356,3.0,6.0,52,0.00,,,0.00,0,Wunderground v.1.15,2013-02-12 22:15:00,
2013-02-12 14:20:00,58.6,41.5,30.32,NE,47,2.0,2.0,53,0.00,,,0.00,0,Wunderground v.1.15,2013-02-12 22:20:00,
2013-02-12 14:30:00,58.7,41.6,30.32,East,79,1.0,1.0,53,0.00,,,0.00,0,Wunderground v.1.15,2013-02-12 22:30:00,
2013-02-12 14:35:00,58.8,41.7,30.32,NNE,20,7.0,7.0,53,0.00,,,0.00,0,Wunderground v.1.15,2013-02-12 22:35:00,
2013-02-12 14:40:00,58.8,41.7,30.32,NE,49,3.0,3.0,53,0.00,,,0.00,0,Wunderground v.1.15,2013-02-12 22:40:00,
2013-02-12 14:50:00,58.3,41.7,30.32,NE,54,4.0,4.0,54,0.00,,,0.00,0,Wunderground v.1.15,2013-02-12 22:50:00,
2013-02-12 15:00:00,58.3,41.2,30.32,NNE,31,5.0,5.0,53,0.00,,,0.00,0,Wunderground v.1.15,2013-02-12 23:00:00,
2013-02-12 15:10:00,58.2,41.1,30.32,NNE,29,3.0,3.0,53,0.00,,,0.00,0,Wunderground v.1.15,2013-02-12 23:10:00,
2013-02-12 15:20:00,58.2,41.6,30.32,NE,36,1.0,1.0,54,0.00,,,0.00,0,Wunderground v.1.15,2013-02-12 23:20:00,
2013-02-12 15:30:00,58.1,41.5,30.32,NNE,33,1.0,1.0,54,0.00,,,0.00,0,Wunderground v.1.15,2013-02-12 23:30:00,
2013-02-12 15:39:00,58.2,41.6,30.32,NNE,14,2.0,2.0,54,0.00,,,0.00,0,Wunderground v.1.15,2013-02-12 23:39:00,
2013-02-12 15:45:00,58.2,41.1,30.32,NE,40,4.0,4.0,53,0.00,,,0.00,0,Wunderground v.1.15,2013-02-12 23:45:00,
2013-02-12 15:50:00,58.2,41.1,30.32,NNE,22,4.0,4.0,53,0.00,,,0.00,0,Wunderground v.1.15,2013-02-12 23:50:00,
2013-02-12 16:00:00,58.1,41.5,30.32,North,6,3.0,3.0,54,0.00,,,0.00,0,Wunderground v.1.15,2013-02-13 00:00:00,
2013-02-12 16:10:00,58.0,41.9,30.31,NE,45,3.0,3.0,55,0.00,,,0.00,0,Wunderground v.1.15,2013-02-13 00:10:00,
2013-02-12 16:20:00,57.7,41.2,30.31,North,3,6.0,6.0,54,0.00,,,0.00,0,Wunderground v.1.15,2013-02-13 00:20:00,
2013-02-12 16:30:00,57.5,41.0,30.31,NNE,32,5.0,5.0,54,0.00,,,0.00,0,Wunderground v.1.15,2013-02-13 00:30:00,
2013-02-12 16:35:00,57.3,40.8,30.31,NNE,21,4.0,5.0,54,0.00,,,0.00,0,Wunderground v.1.15,2013-02-13 00:35:00,
2013-02-12 16:40:00,57.3,40.8,30.31,NE,34,3.0,3.0,54,0.00,,,0.00,0,Wunderground v.1.15,2013-02-13 00:40:00,
2013-02-12 16:50:00,57.1,40.6,30.31,NNE,30,2.0,2.0,54,0.00,,,0.00,0,Wunderground v.1.15,2013-02-13 00:50:00,
2013-02-12 17:00:00,56.8,40.8,30.31,NE,38,0.0,0.0,55,0.00,,,0.00,0,Wunderground v.1.15,2013-02-13 01:00:00,
2013-02-12 17:05:00,56.7,40.7,30.31,NE,36,1.0,1.0,55,0.00,,,0.00,0,Wunderground v.1.15,2013-02-13 01:05:00,
2013-02-12 17:10:00,56.5,40.5,30.31,NNE,19,1.0,1.0,55,0.00,,,0.00,0,Wunderground v.1.15,2013-02-13 01:10:00,
2013-02-12 17:20:00,56.2,40.7,30.31,NNE,29,1.0,1.0,56,0.00,,,0.00,0,Wunderground v.1.15,2013-02-13 01:20:00,
2013-02-12 17:30:00,55.8,40.8,30.31,NE,38,0.0,0.0,57,0.00,,,0.00,0,Wunderground v.1.15,2013-02-13 01:30:00,
2013-02-12 17:35:00,55.6,41.0,30.31,NE,40,2.0,2.0,58,0.00,,,0.00,0,Wunderground v.1.15,2013-02-13 01:35:00,
2013-02-12 17:40:00,55.4,40.9,30.32,NE,38,1.0,1.0,58,0.00,,,0.00,0,Wunderground v.1.15,2013-02-13 01:40:00,
2013-02-12 17:50:00,54.8,40.7,30.32,NNE,31,0.0,0.0,59,0.00,,,0.00,0,Wunderground v.1.15,2013-02-13 01:50:00,
2013-02-12 18:00:00,54.2,40.6,30.32,NNE,31,0.0,0.0,60,0.00,,,0.00,0,Wunderground v.1.15,2013-02-13 02:00:00,
2013-02-12 18:10:00,53.4,40.7,30.32,NNE,31,0.0,0.0,62,0.00,,,0.00,0,Wunderground v.1.15,2013-02-13 02:10:00,
2013-02-12 18:15:00,52.9,40.6,30.32,NNE,31,0.0,0.0,63,0.00,,,0.00,0,Wunderground v.1.15,2013-02-13 02:15:00,
2013-02-12 18:20:00,52.6,40.8,30.32,NNE,31,0.0,0.0,64,0.00,,,0.00,0,Wunderground v.1.15,2013-02-13 02:20:00,
2013-02-12 18:30:00,51.6,40.6,30.32,NNE,31,0.0,0.0,66,0.00,,,0.00,0,Wunderground v.1.15,2013-02-13 02:30:00,
2013-02-12 18:40:00,50.8,40.2,30.32,NNE,31,0.0,0.0,67,0.00,,,0.00,0,Wunderground v.1.15,2013-02-13 02:40:00,
2013-02-12 18:45:00,50.4,39.9,30.31,NNE,31,0.0,0.0,67,0.00,,,0.00,0,Wunderground v.1.15,2013-02-13 02:45:00,
2013-02-12 18:55:00,49.8,40.0,30.31,NNE,31,0.0,0.0,69,0.00,,,0.00,0,Wunderground v.1.15,2013-02-13 02:55:00,
2013-02-12 19:00:00,49.5,40.1,30.31,NNE,31,0.0,0.0,70,0.00,,,0.00,0,Wunderground v.1.15,2013-02-13 03:00:00,
2013-02-12 19:10:00,49.0,39.6,30.31,NNE,31,0.0,0.0,70,0.00,,,0.00,0,Wunderground v.1.15,2013-02-13 03:10:00,
2013-02-12 19:20:00,48.4,39.4,30.32,NNE,31,1.0,1.0,71,0.00,,,0.00,0,Wunderground v.1.15,2013-02-13 03:20:00,
2013-02-12 19:25:00,48.2,39.2,30.32,NNE,31,1.0,1.0,71,0.00,,,0.00,0,Wunderground v.1.15,2013-02-13 03:25:00,
2013-02-12 19:30:00,48.0,39.4,30.32,NNE,31,0.0,0.0,72,0.00,,,0.00,0,Wunderground v.1.15,2013-02-13 03:30:00,
2013-02-12 19:40:00,47.5,38.9,30.32,NNE,31,0.0,0.0,72,0.00,,,0.00,0,Wunderground v.1.15,2013-02-13 03:40:00,
2013-02-12 19:50:00,47.2,39.3,30.32,NNE,31,0.0,0.0,74,0.00,,,0.00,0,Wunderground v.1.15,2013-02-13 03:50:00,
2013-02-12 19:55:00,46.9,39.0,30.32,NNE,31,0.0,0.0,74,0.00,,,0.00,0,Wunderground v.1.15,2013-02-13 03:55:00,
2013-02-12 20:00:00,46.7,39.2,30.32,NNE,31,0.0,0.0,75,0.00,,,0.00,0,Wunderground v.1.15,2013-02-13 04:00:00,
2013-02-12 20:10:00,46.2,39.1,30.33,NNE,31,0.0,0.0,76,0.00,,,0.00,0,Wunderground v.1.15,2013-02-13 04:10:00,
2013-02-12 20:19:00,46.0,39.2,30.33,NNE,33,1.0,1.0,77,0.00,,,0.00,0,Wunderground v.1.15,2013-02-13 04:19:00,
2013-02-12 20:25:00,45.9,39.1,30.32,SSE,161,1.0,1.0,77,0.00,,,0.00,0,Wunderground v.1.15,2013-02-13 04:25:00,
2013-02-12 20:30:00,45.7,39.2,30.32,South,171,2.0,2.0,78,0.00,,,0.00,0,Wunderground v.1.15,2013-02-13 04:30:00,
2013-02-12 20:40:00,45.3,39.5,30.33,South,185,2.0,2.0,80,0.00,,,0.00,0,Wunderground v.1.15,2013-02-13 04:40:00,
2013-02-12 20:45:00,45.2,39.7,30.33,South,185,1.0,2.0,81,0.00,,,0.00,0,Wunderground v.1.15,2013-02-13 04:45:00,
2013-02-12 20:55:00,45.1,39.9,30.33,South,184,2.0,2.0,82,0.00,,,0.00,0,Wunderground v.1.15,2013-02-13 04:55:00,
2013-02-12 21:00:00,45.1,39.9,30.33,South,183,1.0,1.0,82,0.00,,,0.00,0,Wunderground v.1.15,2013-02-13 05:00:00,
2013-02-12 21:05:00,45.0,39.8,30.33,South,173,0.0,1.0,82,0.00,,,0.00,0,Wunderground v.1.15,2013-02-13 05:05:00,
2013-02-12 21:10:00,44.7,39.9,30.33,South,173,3.0,3.0,83,0.00,,,0.00,0,Wunderground v.1.15,2013-02-13 05:10:00,
2013-02-12 21:20:00,44.6,39.8,30.33,South,173,1.0,1.0,83,0.00,,,0.00,0,Wunderground v.1.15,2013-02-13 05:20:00,
2013-02-12 21:30:00,44.6,39.8,30.34,South,175,1.0,1.0,83,0.00,,,0.00,0,Wunderground v.1.15,2013-02-13 05:30:00,
2013-02-12 21:35:00,44.5,39.7,30.33,South,173,2.0,2.0,83,0.00,,,0.00,0,Wunderground v.1.15,2013-02-13 05:35:00,
2013-02-12 21:40:00,44.5,39.7,30.33,South,182,2.0,2.0,83,0.00,,,0.00,0,Wunderground v.1.15,2013-02-13 05:40:00,
2013-02-12 21:50:00,44.3,39.5,30.34,South,174,3.0,3.0,83,0.00,,,0.00,0,Wunderground v.1.15,2013-02-13 05:50:00,
2013-02-12 22:00:00,44.1,38.6,30.34,South,170,2.0,2.0,81,0.00,,,0.00,0,Wunderground v.1.15,2013-02-13 06:00:00,
2013-02-12 22:05:00,44.0,38.5,30.34,SSE,161,2.0,2.0,81,0.00,,,0.00,0,Wunderground v.1.15,2013-02-13 06:05:00,
2013-02-12 22:10:00,43.9,38.4,30.34,South,175,1.0,1.0,81,0.00,,,0.00,0,Wunderground v.1.15,2013-02-13 06:10:00,
2013-02-12 22:20:00,43.6,37.8,30.34,South,170,1.0,1.0,80,0.00,,,0.00,0,Wunderground v.1.15,2013-02-13 06:20:00,
2013-02-12 22:30:00,43.4,37.6,30.34,South,182,2.0,2.0,80,0.00,,,0.00,0,Wunderground v.1.15,2013-02-13 06:30:00,
2013-02-12 22:35:00,43.3,37.9,30.34,South,171,1.0,2.0,81,0.00,,,0.00,0,Wunderground v.1.15,2013-02-13 06:35:00,
2013-02-12 22:45:00,43.2,37.8,30.33,South,171,0.0,2.0,81,0.00,,,0.00,0,Wunderground v.1.15,2013-02-13 06:45:00,
2013-02-12 22:50:00,43.1,38.0,30.34,South,171,0.0,0.0,82,0.00,,,0.00,0,Wunderground v.1.15,2013-02-13 06:50:00,
2013-02-12 22:55:00,42.9,37.8,30.34,South,171,0.0,0.0,82,0.00,,,0.00,0,Wunderground v.1.15,2013-02-13 06:55:00,
2013-02-12 23:00:00,42.7,37.9,30.34,South,171,1.0,1.0,83,0.00,,,0.00,0,Wunderground v.1.15,2013-02-13 07:00:00,
2013-02-12 23:10:00,42.7,37.9,30.34,South,174,0.0,0.0,83,0.00,,,0.00,0,Wunderground v.1.15,2013-02-13 07:10:00,
2013-02-12 23:20:00,42.7,37.9,30.34,SSE,160,1.0,1.0,83,0.00,,,0.00,0,Wunderground v.1.15,2013-02-13 07:20:00,
2013-02-12 23:25:00,42.8,37.7,30.34,South,174,1.0,1.0,82,0.00,,,0.00,0,Wunderground v.1.15,2013-02-13 07:25:00,
2013-02-12 23:30:00,42.7,37.6,30.34,South,174,1.0,1.0,82,0.00,,,0.00,0,Wunderground v.1.15,2013-02-13 07:30:00,
2013-02-12 23:40:00,42.3,37.2,30.35,South,174,1.0,1.0,82,0.00,,,0.00,0,Wunderground v.1.15,2013-02-13 07:40:00,
2013-02-12 23:45:00,42.2,37.1,30.35,South,174,0.0,1.0,82,0.00,,,0.00,0,Wunderground v.1.15,2013-02-13 07:45:00,
2013-02-12 23:50:00,41.9,37.1,30.35,South,174,0.0,0.0,83,0.00,,,0.00,0,Wunderground v.1.15,2013-02-13 07:50:00,